Time;durP1;ratioP1;P1;durP2;ratioP2;P2;SDS_P1;SDS_P2;PMS_P1;PMS_P2;Temp;Humidity;BMP_temperature;BMP_pressure;BME280_temperature;BME280_humidity;BME280_pressure;Samples;Min_cycle;Max_cycle;Signal;HPM_P1;HPM_P2
2023/10/24 00:01:24;;;;;;;13.75;2.90;;;;;;;19.79;46.56;98853.19;5011797;28;20038;-76
2023/10/24 00:03:50;;;;;;;14.45;2.70;;;;;;;19.82;46.62;98859.97;4995324;28;20096;-76
2023/10/24 00:06:15;;;;;;;13.30;3.60;;;;;;;19.75;46.86;98859.81;4995544;28;20033;-76
2023/10/24 00:08:41;;;;;;;10.90;2.55;;;;;;;19.68;47.13;98851.72;5011953;28;20033;-76
2023/10/24 00:11:07;;;;;;;11.40;3.00;;;;;;;19.68;47.12;98850.91;4995175;28;20034;-76
2023/10/24 00:13:32;;;;;;;13.90;3.20;;;;;;;19.71;46.91;98856.69;4995273;28;20021;-76
2023/10/24 00:15:58;;;;;;;10.48;2.83;;;;;;;19.69;46.92;98856.03;4995240;28;20034;-76
2023/10/24 00:18:27;;;;;;;15.57;2.93;;;;;;;19.61;47.23;98853.44;5011382;28;20034;-76
2023/10/24 00:20:52;;;;;;;15.23;3.05;;;;;;;19.60;47.40;98848.31;5011571;28;20029;-77
2023/10/24 00:23:18;;;;;;;12.65;2.90;;;;;;;19.54;47.26;98844.50;5007832;28;20581;-76
2023/10/24 00:25:43;;;;;;;14.73;3.22;;;;;;;19.55;47.49;98842.72;4991788;28;20033;-76
2023/10/24 00:28:09;;;;;;;15.45;3.20;;;;;;;19.50;47.37;98833.44;4975768;28;20069;-76
2023/10/24 00:30:34;;;;;;;19.35;4.15;;;;;;;19.46;47.30;98823.38;4991797;28;20098;-83
2023/10/24 00:33:00;;;;;;;8.07;3.20;;;;;;;19.46;47.48;98826.03;4975744;28;20120;-76
2023/10/24 00:35:25;;;;;;;15.45;3.05;;;;;;;19.37;47.83;98827.88;4991742;28;20030;-76
2023/10/24 00:37:51;;;;;;;13.90;3.10;;;;;;;19.39;47.70;98822.41;4959487;28;20407;-76
2023/10/24 00:40:18;;;;;;;11.43;3.22;;;;;;;19.39;47.54;98830.34;4975466;28;20062;-77
2023/10/24 00:42:44;;;;;;;9.00;2.88;;;;;;;19.36;47.60;98826.22;4960257;28;20515;-76
2023/10/24 00:45:10;;;;;;;16.52;2.95;;;;;;;19.36;47.78;98830.72;4943395;28;20133;-76
2023/10/24 00:47:36;;;;;;;10.52;3.10;;;;;;;19.29;47.82;98823.44;4959319;28;20042;-76
2023/10/24 00:50:02;;;;;;;13.15;2.67;;;;;;;19.28;48.03;98821.78;4975188;28;20037;-77
2023/10/24 00:52:27;;;;;;;11.95;2.70;;;;;;;19.23;48.21;98816.19;4958925;28;20401;-77
2023/10/24 00:54:53;;;;;;;12.98;3.03;;;;;;;19.22;48.63;98817.16;4991656;28;20477;-76
2023/10/24 00:57:18;;;;;;;13.07;2.78;;;;;;;19.20;48.92;98826.28;4975693;28;20509;-76
2023/10/24 00:59:44;;;;;;;10.90;3.15;;;;;;;19.09;49.29;98820.38;4975354;28;20031;-76
2023/10/24 01:02:10;;;;;;;12.55;2.60;;;;;;;19.04;49.19;98811.28;4975147;28;20578;-77
2023/10/24 01:04:36;;;;;;;16.15;2.97;;;;;;;19.04;49.04;98825.34;4975763;28;20485;-76
2023/10/24 01:07:01;;;;;;;10.15;2.50;;;;;;;19.06;49.00;98825.19;4959517;28;20022;-76
2023/10/24 01:09:27;;;;;;;12.80;2.78;;;;;;;19.03;48.91;98814.94;4975406;28;20499;-76
2023/10/24 01:11:53;;;;;;;11.45;2.58;;;;;;;19.00;49.26;98818.72;4975271;28;20031;-76
2023/10/24 01:14:19;;;;;;;12.85;3.13;;;;;;;19.04;49.33;98822.69;4975372;28;20030;-76
2023/10/24 01:16:44;;;;;;;16.10;2.60;;;;;;;19.02;48.99;98834.44;4975021;28;20033;-77
2023/10/24 01:19:11;;;;;;;12.60;3.00;;;;;;;19.00;49.05;98825.84;4975242;28;20062;-77
2023/10/24 01:21:40;;;;;;;14.65;2.67;;;;;;;18.93;49.36;98825.69;4959120;28;20121;-77
2023/10/24 01:24:06;;;;;;;12.55;3.35;;;;;;;18.92;49.41;98827.50;5000816;28;20054;-77
2023/10/24 01:26:31;;;;;;;13.18;2.97;;;;;;;18.88;49.68;98828.84;4991358;28;20073;-77
2023/10/24 01:28:57;;;;;;;12.60;3.50;;;;;;;18.88;49.48;98831.50;4959039;28;20426;-76
2023/10/24 01:31:22;;;;;;;20.35;3.05;;;;;;;18.87;49.59;98826.38;4975022;28;20124;-76
2023/10/24 01:33:48;;;;;;;12.30;2.65;;;;;;;18.87;49.51;98829.00;4991328;28;20066;-76
2023/10/24 01:36:13;;;;;;;11.57;3.20;;;;;;;18.86;49.63;98820.25;4991213;28;20564;-76
2023/10/24 01:38:39;;;;;;;9.40;3.03;;;;;;;18.83;49.49;98815.25;4992179;28;20063;-76
2023/10/24 01:41:05;;;;;;;18.40;3.67;;;;;;;18.85;49.98;98829.19;4975154;28;20405;-76
2023/10/24 01:43:30;;;;;;;10.63;3.08;;;;;;;18.82;49.98;98826.84;4991259;28;20082;-77
2023/10/24 01:45:56;;;;;;;22.60;4.47;;;;;;;18.80;49.92;98819.06;4992708;28;20104;-76
2023/10/24 01:48:23;;;;;;;12.88;5.07;;;;;;;18.80;49.70;98823.53;4991114;28;20424;-75
2023/10/24 01:50:48;;;;;;;21.83;9.10;;;;;;;18.79;49.77;98830.63;4958891;28;20038;-77
2023/10/24 01:53:14;;;;;;;16.25;6.53;;;;;;;18.79;49.78;98827.19;4991172;28;20049;-77
2023/10/24 01:55:40;;;;;;;21.02;12.63;;;;;;;18.76;50.22;98830.16;4990832;28;20026;-77
2023/10/24 01:58:05;;;;;;;22.80;9.52;;;;;;;18.72;50.20;98819.09;4974651;28;20043;-78
2023/10/24 02:00:31;;;;;;;19.40;6.30;;;;;;;18.72;49.91;98818.25;4974981;28;20093;-77
2023/10/24 02:02:56;;;;;;;18.20;5.22;;;;;;;18.75;49.78;98823.19;4991135;28;20177;-77
2023/10/24 02:05:22;;;;;;;24.80;11.77;;;;;;;18.74;50.01;98824.22;4978529;28;20524;-77
2023/10/24 02:07:47;;;;;;;41.90;19.02;;;;;;;18.71;50.32;98822.72;4962672;28;20081;-77
2023/10/24 02:10:13;;;;;;;24.23;10.40;;;;;;;18.72;50.14;98815.59;4995627;28;20026;-77
2023/10/24 02:12:38;;;;;;;17.20;7.63;;;;;;;18.71;50.02;98821.91;4978354;28;20061;-77
2023/10/24 02:15:05;;;;;;;22.30;5.07;;;;;;;18.71;50.21;98817.44;4978397;28;20103;-77
2023/10/24 02:17:30;;;;;;;14.15;4.10;;;;;;;18.68;50.31;98817.75;4978416;28;20042;-77
2023/10/24 02:19:56;;;;;;;17.85;4.78;;;;;;;18.68;50.57;98814.31;4994053;28;20022;-77
2023/10/24 02:22:21;;;;;;;10.98;3.80;;;;;;;18.68;50.46;98816.94;4961911;28;20394;-77
2023/10/24 02:24:47;;;;;;;14.18;3.60;;;;;;;18.66;50.80;98818.91;4977954;28;20078;-76
2023/10/24 02:27:13;;;;;;;16.13;5.30;;;;;;;18.60;51.05;98815.94;4977902;28;20030;-76
2023/10/24 02:29:38;;;;;;;16.70;4.65;;;;;;;18.58;51.15;98817.94;4994088;28;20022;-76
2023/10/24 02:32:04;;;;;;;14.90;3.85;;;;;;;18.58;51.07;98812.66;5010299;28;20116;-76
2023/10/24 02:34:30;;;;;;;12.48;3.90;;;;;;;18.57;51.12;98828.69;4995281;28;20042;-76
2023/10/24 02:36:55;;;;;;;11.75;3.00;;;;;;;18.56;51.00;98830.47;4995597;28;20034;-76
2023/10/24 02:39:21;;;;;;;15.15;3.95;;;;;;;18.55;50.95;98815.63;4993775;28;20474;-76
2023/10/24 02:41:47;;;;;;;13.52;3.60;;;;;;;18.53;51.04;98817.63;4993947;28;20038;-76
2023/10/24 02:44:12;;;;;;;14.10;3.33;;;;;;;18.52;50.90;98820.44;4993775;28;20465;-76
2023/10/24 02:46:38;;;;;;;20.08;3.30;;;;;;;18.48;50.83;98813.81;4994217;28;20105;-75
2023/10/24 02:49:03;;;;;;;11.75;2.67;;;;;;;18.45;50.59;98820.25;4993926;28;20031;-76
2023/10/24 02:51:29;;;;;;;10.90;3.13;;;;;;;18.44;50.65;98822.06;4994167;28;20495;-76
2023/10/24 02:53:54;;;;;;;16.90;5.10;;;;;;;18.47;50.84;98828.00;4994009;28;20142;-76
2023/10/24 02:56:20;;;;;;;15.45;5.20;;;;;;;18.45;50.96;98830.81;5009994;28;20468;-78
2023/10/24 02:58:45;;;;;;;12.75;3.28;;;;;;;18.42;50.86;98832.00;4993531;28;20482;-76
2023/10/24 03:01:11;;;;;;;22.58;8.63;;;;;;;18.36;51.08;98823.88;5009876;28;20496;-76
2023/10/24 03:03:37;;;;;;;24.95;11.43;;;;;;;18.37;51.29;98841.41;4977284;28;20509;-77
2023/10/24 03:06:12;;;;;;;22.13;5.70;;;;;;;18.36;51.81;98834.44;4993361;28;20053;-76
2023/10/24 03:08:37;;;;;;;15.27;4.05;;;;;;;18.38;52.28;98845.69;4977215;28;20085;-77
2023/10/24 03:11:03;;;;;;;13.18;3.53;;;;;;;18.34;51.95;98833.78;4993396;28;20022;-76
2023/10/24 03:13:28;;;;;;;11.40;3.55;;;;;;;18.33;51.92;98830.34;4993756;28;20061;-76
2023/10/24 03:15:54;;;;;;;11.80;3.53;;;;;;;18.37;52.08;98847.50;5009534;28;20068;-76
2023/10/24 03:18:19;;;;;;;18.55;5.57;;;;;;;18.37;51.75;98842.22;4976725;28;20526;-77
2023/10/24 03:20:45;;;;;;;12.65;5.00;;;;;;;18.40;51.37;98849.00;5012068;28;20100;-77
2023/10/24 03:23:10;;;;;;;15.40;3.28;;;;;;;18.34;51.47;98841.72;4982252;28;20058;-77
2023/10/24 03:25:40;;;;;;;14.95;3.80;;;;;;;18.34;51.75;98845.19;5028408;28;20546;-77
2023/10/24 03:28:05;;;;;;;16.08;4.13;;;;;;;18.35;51.37;98848.66;5029210;28;20037;-77
2023/10/24 03:30:31;;;;;;;11.85;3.28;;;;;;;18.35;51.23;98852.13;5028972;28;20033;-77
2023/10/24 03:32:56;;;;;;;13.07;4.15;;;;;;;18.31;51.32;98840.25;5012832;28;20443;-76
2023/10/24 03:35:22;;;;;;;14.27;3.35;;;;;;;18.30;51.52;98843.06;5012459;28;20038;-78
2023/10/24 03:37:47;;;;;;;13.77;2.72;;;;;;;18.27;51.40;98847.66;5009451;28;20045;-79
2023/10/24 03:40:13;;;;;;;18.10;3.33;;;;;;;18.25;51.32;98847.00;5008322;28;20030;-78
2023/10/24 03:42:38;;;;;;;23.00;3.70;;;;;;;18.18;51.45;98835.44;4976609;28;20050;-77
2023/10/24 03:45:05;;;;;;;13.85;3.25;;;;;;;18.19;52.70;98837.09;4957445;28;20031;-73
2023/10/24 03:47:30;;;;;;;15.88;3.03;;;;;;;18.35;53.48;98843.38;4989598;28;20066;-74
2023/10/24 03:49:56;;;;;;;10.93;3.20;;;;;;;18.35;53.19;98840.75;4989383;28;20050;-76
2023/10/24 03:52:21;;;;;;;15.15;2.95;;;;;;;18.42;55.77;98826.72;4992367;28;20481;-78
2023/10/24 03:54:47;;;;;;;11.88;2.90;;;;;;;18.52;54.32;98839.75;5008946;28;20069;-79
2023/10/24 03:57:12;;;;;;;8.77;2.92;;;;;;;18.88;58.30;98839.44;4992740;28;20491;-77
2023/10/24 03:59:37;;;;;;;12.15;3.63;;;;;;;19.10;56.80;98837.91;4992322;28;20058;-81
2023/10/24 04:02:03;;;;;;;13.98;3.15;;;;;;;19.37;56.09;98837.63;4992364;28;20046;-76
2023/10/24 04:04:29;;;;;;;21.80;3.28;;;;;;;19.30;54.71;98822.44;4993596;28;20031;-75
2023/10/24 04:06:55;;;;;;;14.70;3.55;;;;;;;19.32;54.07;98836.34;4992448;28;20386;-75
2023/10/24 04:09:21;;;;;;;10.98;3.25;;;;;;;19.31;53.28;98839.16;5008478;28;20080;-77
2023/10/24 04:11:46;;;;;;;15.70;3.47;;;;;;;19.26;52.78;98830.88;4976293;28;20105;-75
2023/10/24 04:14:12;;;;;;;15.23;3.05;;;;;;;19.24;52.52;98838.16;4976004;28;20477;-76
2023/10/24 04:16:37;;;;;;;11.82;3.00;;;;;;;19.21;52.07;98843.81;4992277;28;20034;-74
2023/10/24 04:19:03;;;;;;;15.88;3.25;;;;;;;19.18;51.93;98837.03;5008343;28;20081;-73
2023/10/24 04:21:28;;;;;;;15.38;3.10;;;;;;;19.16;51.59;98839.03;4975886;28;20031;-74
2023/10/24 04:23:54;;;;;;;15.18;3.40;;;;;;;19.13;51.39;98842.00;4979223;28;20058;-76
2023/10/24 04:26:19;;;;;;;12.48;2.88;;;;;;;19.08;51.25;98836.41;4994572;28;20033;-78
2023/10/24 04:28:45;;;;;;;13.48;3.10;;;;;;;19.08;51.06;98844.34;4978971;28;20569;-78
2023/10/24 04:31:10;;;;;;;11.15;3.00;;;;;;;19.10;50.88;98845.00;4979735;28;20038;-81
2023/10/24 04:33:36;;;;;;;15.73;3.53;;;;;;;19.08;50.65;98845.16;4979134;28;20040;-77
2023/10/24 04:36:01;;;;;;;13.35;3.20;;;;;;;19.08;50.51;98847.81;5012876;28;20396;-78
2023/10/24 04:38:27;;;;;;;10.00;2.60;;;;;;;19.07;50.54;98854.09;4995324;28;20396;-78
2023/10/24 04:40:52;;;;;;;9.23;2.50;;;;;;;19.04;50.34;98843.88;4979194;28;20108;-78
2023/10/24 04:43:18;;;;;;;7.40;2.55;;;;;;;19.01;50.02;98844.19;5011685;28;20132;-79
2023/10/24 04:45:44;;;;;;;10.48;2.67;;;;;;;19.06;49.95;98852.44;4995092;28;20116;-78
2023/10/24 04:48:09;;;;;;;18.55;2.90;;;;;;;19.09;49.64;98862.69;4978986;28;20034;-79
2023/10/24 04:50:36;;;;;;;12.98;3.28;;;;;;;19.09;49.74;98862.69;4979045;28;20022;-79
2023/10/24 04:53:02;;;;;;;10.05;2.95;;;;;;;19.16;49.76;98876.06;4979635;28;20036;-77
2023/10/24 04:55:28;;;;;;;14.80;3.20;;;;;;;19.16;49.47;98863.69;4979182;28;20034;-79
2023/10/24 04:57:53;;;;;;;13.82;3.42;;;;;;;19.28;49.24;98882.66;4978724;28;20128;-78
2023/10/24 05:00:19;;;;;;;11.55;2.83;;;;;;;19.36;49.08;98884.47;5011906;28;20366;-80
2023/10/24 05:02:45;;;;;;;11.50;3.10;;;;;;;19.46;48.76;98890.38;4995493;28;20163;-78
2023/10/24 05:05:10;;;;;;;11.32;2.75;;;;;;;19.61;48.38;98897.59;4979253;28;20113;-78
2023/10/24 05:07:36;;;;;;;10.82;2.70;;;;;;;19.71;47.99;98892.94;4995224;28;20045;-79
2023/10/24 05:10:02;;;;;;;10.77;2.85;;;;;;;19.87;47.66;98897.38;4995074;28;20080;-81
2023/10/24 05:12:28;;;;;;;13.07;3.03;;;;;;;20.00;47.51;98904.75;4979915;28;20068;-77
2023/10/24 05:14:53;;;;;;;19.75;3.65;;;;;;;20.18;47.06;98905.31;4978749;28;20474;-77
2023/10/24 05:17:19;;;;;;;14.05;3.45;;;;;;;20.35;46.76;98908.69;5028121;28;20038;-77
2023/10/24 05:19:44;;;;;;;16.90;3.20;;;;;;;20.55;46.39;98905.56;4994947;28;20026;-78
2023/10/24 05:22:13;;;;;;;12.95;2.58;;;;;;;20.79;45.77;98909.88;4964298;28;20053;-80
2023/10/24 05:24:39;;;;;;;14.30;3.15;;;;;;;21.02;45.69;98919.66;4981098;28;20053;-82
2023/10/24 05:27:05;;;;;;;13.07;3.10;;;;;;;21.26;45.08;98929.19;4979481;28;20377;-79
2023/10/24 05:29:36;;;;;;;14.32;3.28;;;;;;;21.52;44.26;98930.63;4979830;28;20040;-80
2023/10/24 05:32:02;;;;;;;12.70;2.78;;;;;;;21.85;43.74;98933.72;4994997;28;20037;-81
2023/10/24 05:34:28;;;;;;;10.98;2.80;;;;;;;22.32;46.94;98935.13;4998682;28;20035;-78
2023/10/24 05:36:54;;;;;;;12.15;2.50;;;;;;;22.85;48.42;98939.28;4982182;28;20053;-77
2023/10/24 05:39:20;;;;;;;11.07;2.60;;;;;;;23.39;46.74;98943.22;4982144;28;20511;-78
2023/10/24 05:41:46;;;;;;;8.95;2.47;;;;;;;23.93;45.30;98949.72;5014512;28;20026;-79
2023/10/24 05:44:12;;;;;;;14.18;3.08;;;;;;;24.34;44.58;98946.97;5010206;28;20042;-78
2023/10/24 05:46:37;;;;;;;9.43;2.60;;;;;;;24.76;43.72;98954.06;4995217;28;20033;-78
2023/10/24 05:49:03;;;;;;;12.40;2.65;;;;;;;25.21;42.84;98948.94;4994570;28;20038;-78
2023/10/24 05:51:29;;;;;;;11.48;2.40;;;;;;;25.58;41.89;98943.97;5030581;28;20440;-79
2023/10/24 05:53:54;;;;;;;10.60;2.50;;;;;;;26.03;40.94;98951.25;4998374;28;20412;-77
2023/10/24 05:56:20;;;;;;;14.27;3.10;;;;;;;26.45;39.44;98957.81;5031603;28;20044;-78
2023/10/24 05:58:45;;;;;;;7.28;2.75;;;;;;;26.84;38.37;98958.63;4998354;28;20044;-79
2023/10/24 06:01:11;;;;;;;15.65;3.00;;;;;;;27.25;37.05;98967.97;5029984;28;20038;-80
2023/10/24 06:03:37;;;;;;;9.20;2.97;;;;;;;27.62;36.58;98964.56;4998179;28;20465;-80
2023/10/24 06:06:02;;;;;;;15.27;3.45;;;;;;;27.98;35.79;98965.63;4998472;28;20029;-79
2023/10/24 06:08:28;;;;;;;23.92;4.20;;;;;;;28.27;34.67;98969.38;4998045;28;20038;-82
2023/10/24 06:10:55;;;;;;;13.57;3.67;;;;;;;28.60;34.37;98973.50;4996992;28;20504;-80
2023/10/24 06:13:20;;;;;;;19.42;4.00;;;;;;;28.95;33.86;98972.75;4981691;28;20042;-79
2023/10/24 06:15:46;;;;;;;21.55;4.43;;;;;;;29.29;33.30;98973.06;4980604;28;20096;-80
2023/10/24 06:18:11;;;;;;;16.70;3.70;;;;;;;29.62;32.47;98974.34;4997231;28;20033;-79
2023/10/24 06:20:38;;;;;;;16.00;3.70;;;;;;;30.08;32.02;98972.63;5013118;28;20563;-78
2023/10/24 06:23:05;;;;;;;16.77;3.97;;;;;;;30.52;31.33;98972.16;4977808;28;20567;-77
2023/10/24 06:25:44;;;;;;;23.67;4.25;;;;;;;31.00;30.42;98973.50;5011774;28;20435;-80
2023/10/24 06:28:10;;;;;;;23.60;4.20;;;;;;;31.67;29.89;98974.50;4999485;28;20469;-78
2023/10/24 06:30:35;;;;;;;9.65;2.80;;;;;;;32.15;29.68;98968.63;5002994;28;20104;-77
2023/10/24 06:33:01;;;;;;;16.05;3.53;;;;;;;32.84;28.10;98981.50;4995448;28;20066;-79
2023/10/24 06:35:27;;;;;;;18.98;3.33;;;;;;;33.46;27.22;98973.84;5001359;28;20038;-80
2023/10/24 06:37:52;;;;;;;15.90;3.38;;;;;;;34.00;27.22;98976.31;4962665;28;20065;-84
2023/10/24 06:40:18;;;;;;;12.82;3.42;;;;;;;34.49;26.39;98982.41;4988106;28;20502;-78
2023/10/24 06:42:44;;;;;;;19.08;5.22;;;;;;;34.86;25.19;98981.41;5014725;28;20030;-77
2023/10/24 06:45:10;;;;;;;36.80;6.57;;;;;;;35.12;22.72;98985.75;5002444;28;20544;-90
2023/10/24 06:47:36;;;;;;;32.67;7.75;;;;;;;35.10;21.96;98984.38;5002072;28;20038;-82
2023/10/24 06:50:14;;;;;;;30.83;6.85;;;;;;;35.08;22.18;98983.84;5001041;28;20029;-88
2023/10/24 06:52:42;;;;;;;38.25;7.25;;;;;;;35.32;21.65;98975.97;5018777;28;20416;-87
2023/10/24 06:55:09;;;;;;;100.18;10.27;;;;;;;35.68;21.46;98973.97;5043983;22;20067;-84
2023/10/24 06:57:34;;;;;;;76.53;9.20;;;;;;;35.96;20.99;98976.31;5046462;28;20132;-82
2023/10/24 07:00:00;;;;;;;44.83;6.50;;;;;;;36.22;21.46;98968.84;5023050;28;20032;-83
2023/10/24 07:02:25;;;;;;;47.03;7.72;;;;;;;36.31;21.20;98964.50;5070282;28;20021;-76
2023/10/24 07:04:51;;;;;;;44.80;9.13;;;;;;;36.32;20.63;98968.81;5052997;28;20029;-77
2023/10/24 07:07:16;;;;;;;35.58;7.60;;;;;;;36.15;21.30;98979.22;5051650;28;20116;-75
2023/10/24 07:09:42;;;;;;;53.33;8.25;;;;;;;35.76;21.62;98979.97;5026773;28;20415;-82
2023/10/24 07:12:07;;;;;;;45.67;8.80;;;;;;;35.14;21.88;98977.34;5020159;28;20130;-83
2023/10/24 07:14:33;;;;;;;50.25;7.95;;;;;;;34.79;22.81;98977.06;5020525;28;20116;-78
2023/10/24 07:16:58;;;;;;;46.65;8.18;;;;;;;34.52;22.87;98980.00;5071076;22;20057;-80
2023/10/24 07:19:24;;;;;;;53.17;8.25;;;;;;;34.37;21.93;98977.25;5013816;28;20040;-82
2023/10/24 07:21:49;;;;;;;50.25;8.95;;;;;;;34.13;22.64;98976.88;4999941;28;20099;-84
2023/10/24 07:24:15;;;;;;;47.90;8.30;;;;;;;34.33;23.88;98982.41;5031939;28;20038;-78
2023/10/24 07:26:42;;;;;;;40.42;7.65;;;;;;;34.71;24.47;98982.16;5016184;28;20045;-82
2023/10/24 07:29:08;;;;;;;45.75;7.93;;;;;;;35.00;23.91;98971.63;5032166;28;20061;-80
2023/10/24 07:31:33;;;;;;;35.28;7.45;;;;;;;35.31;23.68;98979.75;5016465;28;20072;-78
2023/10/24 07:33:59;;;;;;;45.80;8.00;;;;;;;35.54;22.79;98982.97;4999511;28;20507;-78
2023/10/24 07:36:30;;;;;;;36.47;7.78;;;;;;;35.74;22.53;98973.94;5016195;28;20037;-76
2023/10/24 07:38:56;;;;;;;36.38;7.85;;;;;;;35.86;22.13;98971.75;5033118;28;20029;-77
2023/10/24 07:41:22;;;;;;;35.53;7.82;;;;;;;36.00;22.23;98971.97;5032432;28;20192;-76
2023/10/24 07:43:47;;;;;;;45.85;8.10;;;;;;;36.14;21.85;98967.53;5048943;28;20109;-77
2023/10/24 07:46:13;;;;;;;36.78;7.75;;;;;;;36.27;21.61;98963.41;5032232;28;20033;-77
2023/10/24 07:48:41;;;;;;;30.88;7.05;;;;;;;36.44;21.45;98964.97;5032089;28;20171;-77
2023/10/24 07:51:10;;;;;;;31.58;5.65;;;;;;;36.58;20.95;98949.63;5032606;28;20116;-77
2023/10/24 07:53:36;;;;;;;30.58;6.10;;;;;;;36.72;21.52;98957.94;5030236;28;20033;-79
2023/10/24 07:56:03;;;;;;;25.35;5.60;;;;;;;36.85;21.01;98954.59;5045679;28;20124;-78
2023/10/24 07:58:30;;;;;;;28.25;5.55;;;;;;;36.93;21.25;98955.91;5029241;28;20415;-79
2023/10/24 08:00:55;;;;;;;31.05;5.50;;;;;;;37.01;20.70;98949.03;4998272;28;20493;-79
2023/10/24 08:03:21;;;;;;;25.10;5.13;;;;;;;37.11;20.81;98946.19;5013955;28;20034;-78
2023/10/24 08:05:46;;;;;;;27.65;5.47;;;;;;;37.23;20.64;98945.84;4999040;28;20423;-80
2023/10/24 08:08:12;;;;;;;26.92;4.97;;;;;;;37.34;20.80;98938.34;5015602;28;20048;-77
2023/10/24 08:10:38;;;;;;;27.00;5.03;;;;;;;37.46;20.49;98938.78;4999191;28;20030;-80
2023/10/24 08:13:03;;;;;;;29.73;5.30;;;;;;;37.52;20.58;98932.16;5000064;28;20033;-79
2023/10/24 08:15:29;;;;;;;30.67;5.20;;;;;;;37.63;19.74;98935.59;4999339;28;20376;-78
2023/10/24 08:17:54;;;;;;;30.70;5.10;;;;;;;37.57;20.29;98932.09;5018006;28;20136;-78
2023/10/24 08:20:20;;;;;;;22.73;5.07;;;;;;;37.64;19.50;98929.84;4998831;28;20048;-79
2023/10/24 08:22:46;;;;;;;19.10;4.28;;;;;;;37.39;20.56;98930.16;4999086;28;20057;-78
2023/10/24 08:25:12;;;;;;;20.63;4.93;;;;;;;37.43;20.72;98939.34;5031562;28;20036;-75
2023/10/24 08:27:37;;;;;;;22.40;4.95;;;;;;;37.46;20.59;98938.78;5014948;28;20487;-79
2023/10/24 08:30:03;;;;;;;24.65;4.47;;;;;;;37.60;20.41;98925.28;4998857;28;20056;-78
2023/10/24 08:32:29;;;;;;;20.25;5.13;;;;;;;37.64;20.64;98921.66;4999293;28;20053;-81
2023/10/24 08:34:55;;;;;;;21.30;4.70;;;;;;;37.48;20.31;98915.59;5015305;28;20084;-78
2023/10/24 08:37:21;;;;;;;29.15;4.78;;;;;;;37.52;20.50;98915.81;4999003;28;20503;-79
2023/10/24 08:39:46;;;;;;;26.05;4.82;;;;;;;37.54;20.57;98915.53;5017035;28;20037;-78
2023/10/24 08:42:12;;;;;;;13.32;4.25;;;;;;;37.55;20.59;98915.25;5015300;28;20045;-79
2023/10/24 08:44:37;;;;;;;17.20;4.20;;;;;;;37.64;20.06;98918.16;5015154;28;20076;-79
2023/10/24 08:47:03;;;;;;;19.27;4.95;;;;;;;37.73;20.44;98918.31;4999229;28;20021;-79
2023/10/24 08:49:29;;;;;;;18.65;4.47;;;;;;;37.81;20.35;98920.38;4998675;28;20041;-79
2023/10/24 08:51:54;;;;;;;16.80;4.15;;;;;;;38.13;20.04;98921.56;5015281;28;20037;-79
2023/10/24 08:54:20;;;;;;;20.75;4.18;;;;;;;38.69;18.95;98919.97;5033173;28;20033;-78
2023/10/24 08:56:45;;;;;;;18.15;4.65;;;;;;;39.21;18.53;98920.69;5015602;28;20087;-78
2023/10/24 08:59:11;;;;;;;20.67;4.57;;;;;;;39.75;18.18;98925.63;4998713;28;20060;-80
2023/10/24 09:01:36;;;;;;;28.65;4.25;;;;;;;40.03;17.69;98920.94;5031991;28;20033;-79
2023/10/24 09:04:03;;;;;;;27.27;4.43;;;;;;;39.96;18.16;98910.41;4998650;28;20032;-79
2023/10/24 09:06:30;;;;;;;26.10;4.63;;;;;;;39.90;18.24;98917.13;4998728;28;20036;-79
2023/10/24 09:08:56;;;;;;;18.00;4.18;;;;;;;39.69;18.60;98913.19;5031755;28;20036;-80
2023/10/24 09:11:22;;;;;;;21.25;4.10;;;;;;;39.52;18.30;98922.84;4999461;28;20029;-78
2023/10/24 09:13:48;;;;;;;19.65;4.13;;;;;;;39.34;18.96;98919.06;5018038;28;20128;-79
2023/10/24 09:16:15;;;;;;;20.45;4.20;;;;;;;39.14;18.76;98912.09;5004799;28;20076;-80
2023/10/24 09:18:40;;;;;;;17.50;4.55;;;;;;;38.80;18.95;98913.22;5022527;28;20045;-79
2023/10/24 09:21:09;;;;;;;18.60;4.03;;;;;;;38.75;18.97;98907.06;5021952;28;20033;-80
2023/10/24 09:23:35;;;;;;;11.95;3.55;;;;;;;38.68;19.39;98902.78;5038706;28;20116;-80
2023/10/24 09:26:02;;;;;;;24.87;4.63;;;;;;;38.59;19.47;98904.56;5038511;28;20107;-79
2023/10/24 09:28:29;;;;;;;23.15;4.15;;;;;;;38.47;19.58;98906.94;5005815;28;20029;-83
2023/10/24 09:30:55;;;;;;;22.58;4.55;;;;;;;38.33;19.27;98901.41;5039181;28;20115;-80
2023/10/24 09:33:23;;;;;;;21.35;4.22;;;;;;;38.23;19.43;98894.22;5022133;28;20570;-79
2023/10/24 09:35:49;;;;;;;19.02;3.72;;;;;;;38.23;20.07;98882.50;5022174;28;20041;-78
2023/10/24 09:38:14;;;;;;;25.70;4.88;;;;;;;37.95;19.99;98885.06;5021042;28;20041;-79
2023/10/24 09:40:40;;;;;;;15.90;4.35;;;;;;;37.90;20.31;98882.41;5005627;28;20548;-77
2023/10/24 09:43:24;;;;;;;20.38;4.43;;;;;;;37.78;20.61;98871.94;5021354;28;20499;-78
2023/10/24 09:45:51;;;;;;;18.23;4.03;;;;;;;37.62;20.68;98879.47;5023290;28;20076;-79
2023/10/24 09:48:17;;;;;;;;;;;;;;;37.48;20.75;98868.53;5022700;28;20464;-82
2023/10/24 09:50:43;;;;;;;16.13;3.97;;;;;;;37.37;20.89;98861.56;5021437;28;19909;-81
2023/10/24 09:53:08;;;;;;;20.90;4.05;;;;;;;37.28;21.32;98864.13;5004910;28;20059;-79
2023/10/24 09:55:35;;;;;;;15.48;3.88;;;;;;;37.23;20.90;98856.84;5021640;28;20377;-80
2023/10/24 09:58:01;;;;;;;25.02;3.90;;;;;;;37.21;20.82;98858.19;5038042;28;20400;-81
2023/10/24 10:00:27;;;;;;;17.35;4.32;;;;;;;37.15;21.13;98854.72;5004775;28;20043;-79
2023/10/24 10:02:54;;;;;;;19.13;4.30;;;;;;;37.08;21.19;98849.63;5004576;28;20112;-81
2023/10/24 10:05:19;;;;;;;20.38;4.10;;;;;;;37.10;21.29;98841.16;5004854;28;20033;-80
2023/10/24 10:07:48;;;;;;;14.80;3.53;;;;;;;37.03;21.51;98838.78;5020592;28;20033;-79
2023/10/24 10:10:15;;;;;;;24.80;4.45;;;;;;;36.99;21.44;98836.94;5021473;28;20510;-81
2023/10/24 10:12:41;;;;;;;16.52;3.47;;;;;;;36.89;20.57;98838.66;5037680;28;20048;-80
2023/10/24 10:15:22;;;;;;;19.17;4.20;;;;;;;36.76;21.23;98831.22;5021204;28;20072;-83
2023/10/24 10:18:10;;;;;;;15.98;3.88;;;;;;;36.67;21.41;98836.41;5004947;28;20060;-79
2023/10/24 10:20:51;;;;;;;19.25;4.57;;;;;;;36.52;21.36;98826.50;5054924;28;20052;-79
2023/10/24 10:23:26;;;;;;;33.13;4.28;;;;;;;36.36;21.02;98822.31;5055749;28;20029;-80
2023/10/24 10:25:52;;;;;;;21.65;4.57;;;;;;;35.73;21.08;98826.50;5020357;28;20397;-80
2023/10/24 10:28:36;;;;;;;18.90;4.85;;;;;;;35.74;21.56;98821.88;5037396;28;20139;-80
2023/10/24 10:31:33;;;;;;;26.58;4.55;;;;;;;35.72;22.03;98815.94;5055961;28;20033;-80
2023/10/24 10:33:58;;;;;;;;;;;;;;;35.64;22.04;98810.00;5037659;28;20143;-81
2023/10/24 10:36:24;;;;;;;18.70;4.35;;;;;;;35.57;22.04;98814.94;5021433;28;20057;-80
2023/10/24 10:38:50;;;;;;;19.65;4.20;;;;;;;35.52;22.42;98806.81;5055039;28;20403;-78
2023/10/24 10:41:21;;;;;;;17.35;4.25;;;;;;;35.41;22.54;98797.09;5036437;28;20103;-80
2023/10/24 10:44:00;;;;;;;14.85;4.20;;;;;;;35.35;22.70;98798.22;5036685;28;20052;-83
2023/10/24 10:46:30;;;;;;;23.17;4.25;;;;;;;35.25;22.84;98796.34;5021825;28;20040;-78
2023/10/24 10:48:59;;;;;;;15.85;3.83;;;;;;;35.12;22.89;98790.44;5003716;28;20044;-81
2023/10/24 10:51:32;;;;;;;16.65;4.07;;;;;;;35.03;23.10;98780.41;5005288;28;20515;-82
2023/10/24 10:54:20;;;;;;;19.85;4.07;;;;;;;34.88;23.15;98775.84;5021358;28;20024;-83
2023/10/24 10:56:47;;;;;;;18.98;4.18;;;;;;;34.78;23.17;98779.41;5037088;28;20043;-82
2023/10/24 10:59:34;;;;;;;15.35;3.72;;;;;;;34.78;22.85;98777.50;5003910;28;20037;-81
2023/10/24 11:02:02;;;;;;;18.67;4.20;;;;;;;34.67;23.15;98770.47;5037460;28;20063;-78
2023/10/24 11:04:28;;;;;;;16.50;3.90;;;;;;;34.59;23.50;98771.03;5054192;28;20021;-80
2023/10/24 11:06:54;;;;;;;21.63;3.70;;;;;;;34.23;22.69;98771.88;5036794;28;20033;-81
2023/10/24 11:09:20;;;;;;;20.13;3.73;;;;;;;34.00;22.99;98769.69;5020132;28;20025;-82
2023/10/24 11:11:47;;;;;;;30.35;4.45;;;;;;;33.95;22.12;98767.78;5003370;28;20422;-79
2023/10/24 11:14:19;;;;;;;17.95;3.90;;;;;;;33.84;23.49;98772.41;5038051;28;20372;-80
2023/10/24 11:16:48;;;;;;;19.35;3.55;;;;;;;33.77;24.30;98762.91;5055019;28;20487;-80
2023/10/24 11:19:21;;;;;;;21.95;3.42;;;;;;;33.65;24.21;98757.72;5020134;28;20501;-80
2023/10/24 11:21:48;;;;;;;15.75;3.85;;;;;;;33.62;24.18;98771.78;5020729;28;20040;-81
2023/10/24 11:24:22;;;;;;;18.90;4.07;;;;;;;33.52;24.02;98767.97;5020104;28;20048;-81